sensor_id;sensor_type;location;lat;lon;timestamp;temperature;humidity
3980;DHT22;2004;52.452;13.120;2023-11-19T00:06:42;5.00;99.90
3980;DHT22;2004;52.452;13.120;2023-11-19T00:14:33;5.00;99.90
3980;DHT22;2004;52.452;13.120;2023-11-19T00:22:25;5.00;99.90
3980;DHT22;2004;52.452;13.120;2023-11-19T00:30:16;5.10;99.90
3980;DHT22;2004;52.452;13.120;2023-11-19T00:38:07;5.10;99.90
3980;DHT22;2004;52.452;13.120;2023-11-19T00:45:57;5.10;99.90
3980;DHT22;2004;52.452;13.120;2023-11-19T00:53:48;5.20;99.90
3980;DHT22;2004;52.452;13.120;2023-11-19T01:01:38;5.20;99.90
3980;DHT22;2004;52.452;13.120;2023-11-19T01:09:29;5.20;99.90
3980;DHT22;2004;52.452;13.120;2023-11-19T01:17:20;5.20;99.90
3980;DHT22;2004;52.452;13.120;2023-11-19T01:25:10;5.20;99.90
3980;DHT22;2004;52.452;13.120;2023-11-19T01:33:01;5.30;99.90
3980;DHT22;2004;52.452;13.120;2023-11-19T01:40:56;5.30;99.90
3980;DHT22;2004;52.452;13.120;2023-11-19T01:48:48;5.30;99.90
3980;DHT22;2004;52.452;13.120;2023-11-19T01:56:39;5.30;99.90
3980;DHT22;2004;52.452;13.120;2023-11-19T02:04:31;5.30;99.90
3980;DHT22;2004;52.452;13.120;2023-11-19T02:12:23;5.30;99.90
3980;DHT22;2004;52.452;13.120;2023-11-19T02:20:13;5.30;99.90
3980;DHT22;2004;52.452;13.120;2023-11-19T02:28:06;5.30;99.90
3980;DHT22;2004;52.452;13.120;2023-11-19T02:36:00;5.30;99.90
3980;DHT22;2004;52.452;13.120;2023-11-19T02:43:54;5.40;99.90
3980;DHT22;2004;52.452;13.120;2023-11-19T02:51:45;5.40;99.90
3980;DHT22;2004;52.452;13.120;2023-11-19T02:59:39;5.40;99.90
3980;DHT22;2004;52.452;13.120;2023-11-19T03:07:31;5.40;99.90
3980;DHT22;2004;52.452;13.120;2023-11-19T03:15:22;5.40;99.90
3980;DHT22;2004;52.452;13.120;2023-11-19T03:23:12;5.40;99.90
3980;DHT22;2004;52.452;13.120;2023-11-19T03:31:06;5.40;99.90
3980;DHT22;2004;52.452;13.120;2023-11-19T03:38:58;5.40;99.90
3980;DHT22;2004;52.452;13.120;2023-11-19T03:46:49;5.40;99.90
3980;DHT22;2004;52.452;13.120;2023-11-19T03:54:39;5.30;99.90
3980;DHT22;2004;52.452;13.120;2023-11-19T04:02:30;5.30;99.90
3980;DHT22;2004;52.452;13.120;2023-11-19T04:10:22;5.30;99.90
3980;DHT22;2004;52.452;13.120;2023-11-19T04:18:13;5.30;99.90
3980;DHT22;2004;52.452;13.120;2023-11-19T04:26:04;5.30;99.90
3980;DHT22;2004;52.452;13.120;2023-11-19T04:33:54;5.30;99.90
3980;DHT22;2004;52.452;13.120;2023-11-19T04:41:46;5.30;99.90
3980;DHT22;2004;52.452;13.120;2023-11-19T04:49:41;5.30;99.90
3980;DHT22;2004;52.452;13.120;2023-11-19T04:57:39;5.30;99.90
3980;DHT22;2004;52.452;13.120;2023-11-19T05:05:30;5.40;99.90
3980;DHT22;2004;52.452;13.120;2023-11-19T05:13:23;5.40;99.90
3980;DHT22;2004;52.452;13.120;2023-11-19T05:21:15;5.40;99.90
3980;DHT22;2004;52.452;13.120;2023-11-19T05:29:05;5.40;99.90
3980;DHT22;2004;52.452;13.120;2023-11-19T05:36:57;5.50;99.90
3980;DHT22;2004;52.452;13.120;2023-11-19T05:44:52;5.40;99.90
3980;DHT22;2004;52.452;13.120;2023-11-19T05:52:43;5.40;99.90
3980;DHT22;2004;52.452;13.120;2023-11-19T06:00:33;5.50;99.90
3980;DHT22;2004;52.452;13.120;2023-11-19T06:08:27;5.50;99.90
3980;DHT22;2004;52.452;13.120;2023-11-19T06:16:18;5.50;99.90
3980;DHT22;2004;52.452;13.120;2023-11-19T06:24:13;5.50;99.90
3980;DHT22;2004;52.452;13.120;2023-11-19T06:32:07;5.50;99.90
3980;DHT22;2004;52.452;13.120;2023-11-19T06:39:58;5.50;99.90
3980;DHT22;2004;52.452;13.120;2023-11-19T06:47:49;5.50;99.90
3980;DHT22;2004;52.452;13.120;2023-11-19T06:55:40;5.60;99.90
3980;DHT22;2004;52.452;13.120;2023-11-19T07:03:31;5.60;99.90
3980;DHT22;2004;52.452;13.120;2023-11-19T07:11:22;5.60;99.90
3980;DHT22;2004;52.452;13.120;2023-11-19T07:19:13;5.70;99.90
3980;DHT22;2004;52.452;13.120;2023-11-19T07:27:03;5.80;99.90
3980;DHT22;2004;52.452;13.120;2023-11-19T07:34:54;5.80;99.90
3980;DHT22;2004;52.452;13.120;2023-11-19T07:42:46;5.90;99.90
3980;DHT22;2004;52.452;13.120;2023-11-19T07:50:37;5.90;99.90
3980;DHT22;2004;52.452;13.120;2023-11-19T07:58:28;6.00;99.90
3980;DHT22;2004;52.452;13.120;2023-11-19T08:06:18;6.10;99.90
3980;DHT22;2004;52.452;13.120;2023-11-19T08:14:09;6.20;99.90
3980;DHT22;2004;52.452;13.120;2023-11-19T08:22:00;6.30;99.90
3980;DHT22;2004;52.452;13.120;2023-11-19T08:29:50;6.40;99.90
3980;DHT22;2004;52.452;13.120;2023-11-19T08:37:41;6.60;99.90
3980;DHT22;2004;52.452;13.120;2023-11-19T08:45:35;6.70;99.90
3980;DHT22;2004;52.452;13.120;2023-11-19T08:53:26;6.80;99.90
3980;DHT22;2004;52.452;13.120;2023-11-19T09:01:18;6.90;99.90
3980;DHT22;2004;52.452;13.120;2023-11-19T09:09:08;7.00;99.90
3980;DHT22;2004;52.452;13.120;2023-11-19T09:17:00;7.20;99.90
3980;DHT22;2004;52.452;13.120;2023-11-19T09:24:57;7.40;99.90
3980;DHT22;2004;52.452;13.120;2023-11-19T09:32:50;7.60;99.90
3980;DHT22;2004;52.452;13.120;2023-11-19T09:40:44;7.80;99.90
3980;DHT22;2004;52.452;13.120;2023-11-19T09:48:35;8.00;99.90
3980;DHT22;2004;52.452;13.120;2023-11-19T09:56:29;8.20;99.90
3980;DHT22;2004;52.452;13.120;2023-11-19T10:04:24;8.40;99.90
3980;DHT22;2004;52.452;13.120;2023-11-19T10:12:18;8.60;99.90
3980;DHT22;2004;52.452;13.120;2023-11-19T10:20:12;8.80;99.90
3980;DHT22;2004;52.452;13.120;2023-11-19T10:28:03;9.00;99.90
3980;DHT22;2004;52.452;13.120;2023-11-19T10:35:56;9.20;99.90
3980;DHT22;2004;52.452;13.120;2023-11-19T10:43:48;9.50;99.90
3980;DHT22;2004;52.452;13.120;2023-11-19T10:51:46;9.70;99.90
3980;DHT22;2004;52.452;13.120;2023-11-19T10:59:37;9.80;99.90
3980;DHT22;2004;52.452;13.120;2023-11-19T11:07:31;9.90;99.90
3980;DHT22;2004;52.452;13.120;2023-11-19T11:15:21;10.00;99.90
3980;DHT22;2004;52.452;13.120;2023-11-19T11:40:16;10.20;99.90
3980;DHT22;2004;52.452;13.120;2023-11-19T11:56:04;10.60;99.90
3980;DHT22;2004;52.452;13.120;2023-11-19T12:04:06;10.70;99.90
3980;DHT22;2004;52.452;13.120;2023-11-19T12:12:19;10.70;99.90
3980;DHT22;2004;52.452;13.120;2023-11-19T12:20:25;10.80;99.90
3980;DHT22;2004;52.452;13.120;2023-11-19T12:28:35;10.80;99.90
3980;DHT22;2004;52.452;13.120;2023-11-19T12:36:29;10.90;99.90
3980;DHT22;2004;52.452;13.120;2023-11-19T12:44:29;10.90;99.90
3980;DHT22;2004;52.452;13.120;2023-11-19T12:52:20;11.00;99.90
3980;DHT22;2004;52.452;13.120;2023-11-19T13:00:22;11.00;99.90
3980;DHT22;2004;52.452;13.120;2023-11-19T13:08:16;11.00;99.90
3980;DHT22;2004;52.452;13.120;2023-11-19T13:16:07;10.90;99.90
3980;DHT22;2004;52.452;13.120;2023-11-19T13:23:59;10.80;99.90
3980;DHT22;2004;52.452;13.120;2023-11-19T13:31:50;10.80;99.90
3980;DHT22;2004;52.452;13.120;2023-11-19T13:39:44;10.80;99.90
3980;DHT22;2004;52.452;13.120;2023-11-19T13:47:42;10.80;99.90
3980;DHT22;2004;52.452;13.120;2023-11-19T13:55:36;10.80;99.90
3980;DHT22;2004;52.452;13.120;2023-11-19T14:03:30;10.80;99.90
3980;DHT22;2004;52.452;13.120;2023-11-19T14:11:26;10.90;99.90
3980;DHT22;2004;52.452;13.120;2023-11-19T14:19:17;10.90;99.90
3980;DHT22;2004;52.452;13.120;2023-11-19T14:27:08;10.90;99.90
3980;DHT22;2004;52.452;13.120;2023-11-19T14:35:15;10.90;99.90
3980;DHT22;2004;52.452;13.120;2023-11-19T14:43:05;10.80;99.90
3980;DHT22;2004;52.452;13.120;2023-11-19T14:50:59;10.80;99.90
3980;DHT22;2004;52.452;13.120;2023-11-19T14:58:59;10.70;99.90
3980;DHT22;2004;52.452;13.120;2023-11-19T15:06:51;10.60;99.90
3980;DHT22;2004;52.452;13.120;2023-11-19T15:14:42;10.60;99.90
3980;DHT22;2004;52.452;13.120;2023-11-19T15:22:38;10.50;99.90
3980;DHT22;2004;52.452;13.120;2023-11-19T15:30:35;10.50;99.90
3980;DHT22;2004;52.452;13.120;2023-11-19T15:38:28;10.50;99.90
3980;DHT22;2004;52.452;13.120;2023-11-19T15:46:19;10.50;99.90
3980;DHT22;2004;52.452;13.120;2023-11-19T15:54:13;10.50;99.90
3980;DHT22;2004;52.452;13.120;2023-11-19T16:02:06;10.50;99.90
3980;DHT22;2004;52.452;13.120;2023-11-19T16:10:00;10.50;99.90
3980;DHT22;2004;52.452;13.120;2023-11-19T16:17:54;10.50;99.90
3980;DHT22;2004;52.452;13.120;2023-11-19T16:25:50;10.50;99.90
3980;DHT22;2004;52.452;13.120;2023-11-19T16:33:41;10.50;99.90
3980;DHT22;2004;52.452;13.120;2023-11-19T16:41:31;10.50;99.90
3980;DHT22;2004;52.452;13.120;2023-11-19T16:49:22;10.50;99.90
3980;DHT22;2004;52.452;13.120;2023-11-19T16:57:14;10.50;99.90
3980;DHT22;2004;52.452;13.120;2023-11-19T17:05:06;10.40;99.90
3980;DHT22;2004;52.452;13.120;2023-11-19T17:12:58;10.40;99.90
3980;DHT22;2004;52.452;13.120;2023-11-19T17:20:52;10.40;99.90
3980;DHT22;2004;52.452;13.120;2023-11-19T17:28:50;10.30;99.90
3980;DHT22;2004;52.452;13.120;2023-11-19T17:36:41;10.30;99.90
3980;DHT22;2004;52.452;13.120;2023-11-19T17:44:31;10.30;99.90
3980;DHT22;2004;52.452;13.120;2023-11-19T17:52:23;10.30;99.90
3980;DHT22;2004;52.452;13.120;2023-11-19T18:00:14;10.30;99.90
3980;DHT22;2004;52.452;13.120;2023-11-19T18:08:07;10.30;99.90
3980;DHT22;2004;52.452;13.120;2023-11-19T18:16:01;10.20;99.90
3980;DHT22;2004;52.452;13.120;2023-11-19T18:23:54;10.10;99.90
3980;DHT22;2004;52.452;13.120;2023-11-19T18:31:45;10.00;99.90
3980;DHT22;2004;52.452;13.120;2023-11-19T18:39:50;10.00;99.90
3980;DHT22;2004;52.452;13.120;2023-11-19T18:47:41;9.90;99.90
3980;DHT22;2004;52.452;13.120;2023-11-19T18:55:35;9.90;99.90
3980;DHT22;2004;52.452;13.120;2023-11-19T19:03:26;9.80;99.90
3980;DHT22;2004;52.452;13.120;2023-11-19T19:11:21;9.80;99.90
3980;DHT22;2004;52.452;13.120;2023-11-19T19:19:12;9.80;99.90
3980;DHT22;2004;52.452;13.120;2023-11-19T19:27:08;9.90;99.90
3980;DHT22;2004;52.452;13.120;2023-11-19T19:34:59;9.90;99.90
3980;DHT22;2004;52.452;13.120;2023-11-19T19:43:08;9.90;99.90
3980;DHT22;2004;52.452;13.120;2023-11-19T19:50:59;10.00;99.90
3980;DHT22;2004;52.452;13.120;2023-11-19T19:58:52;10.00;99.90
3980;DHT22;2004;52.452;13.120;2023-11-19T20:06:49;10.00;99.90
3980;DHT22;2004;52.452;13.120;2023-11-19T20:14:40;10.00;99.90
3980;DHT22;2004;52.452;13.120;2023-11-19T20:22:35;10.00;99.90
3980;DHT22;2004;52.452;13.120;2023-11-19T20:30:35;9.90;99.90
3980;DHT22;2004;52.452;13.120;2023-11-19T20:38:26;9.90;99.90
3980;DHT22;2004;52.452;13.120;2023-11-19T20:46:18;9.80;99.90
3980;DHT22;2004;52.452;13.120;2023-11-19T20:54:08;9.80;99.90
3980;DHT22;2004;52.452;13.120;2023-11-19T21:02:04;9.70;99.90
3980;DHT22;2004;52.452;13.120;2023-11-19T21:09:56;9.60;99.90
3980;DHT22;2004;52.452;13.120;2023-11-19T21:17:55;9.60;99.90
3980;DHT22;2004;52.452;13.120;2023-11-19T21:25:49;9.60;99.90
3980;DHT22;2004;52.452;13.120;2023-11-19T21:33:44;9.50;99.90
3980;DHT22;2004;52.452;13.120;2023-11-19T21:41:35;9.60;99.90
3980;DHT22;2004;52.452;13.120;2023-11-19T21:49:31;9.60;99.90
3980;DHT22;2004;52.452;13.120;2023-11-19T21:57:25;9.70;99.90
3980;DHT22;2004;52.452;13.120;2023-11-19T22:05:16;9.70;99.90
3980;DHT22;2004;52.452;13.120;2023-11-19T22:13:10;9.80;99.90
3980;DHT22;2004;52.452;13.120;2023-11-19T22:21:03;9.80;99.90
3980;DHT22;2004;52.452;13.120;2023-11-19T22:28:54;9.80;99.90
3980;DHT22;2004;52.452;13.120;2023-11-19T22:36:47;9.80;99.90
3980;DHT22;2004;52.452;13.120;2023-11-19T22:44:40;9.90;99.90
3980;DHT22;2004;52.452;13.120;2023-11-19T22:52:33;9.90;99.90
3980;DHT22;2004;52.452;13.120;2023-11-19T23:00:31;10.00;99.90
3980;DHT22;2004;52.452;13.120;2023-11-19T23:08:26;9.90;99.90
3980;DHT22;2004;52.452;13.120;2023-11-19T23:16:17;9.90;99.90
3980;DHT22;2004;52.452;13.120;2023-11-19T23:24:08;9.90;99.90
3980;DHT22;2004;52.452;13.120;2023-11-19T23:31:59;10.00;99.90
3980;DHT22;2004;52.452;13.120;2023-11-19T23:39:53;9.90;99.90
3980;DHT22;2004;52.452;13.120;2023-11-19T23:47:44;9.90;99.90
3980;DHT22;2004;52.452;13.120;2023-11-19T23:55:34;9.90;99.90
